createdAt,value
2023-01-10T00:00:47.455Z,19.30
2023-01-10T00:03:14.614Z,19.85
2023-01-10T00:05:44.572Z,18.30
2023-01-10T00:08:16.129Z,18.25
2023-01-10T00:10:42.730Z,18.08
2023-01-10T00:13:30.227Z,18.55
2023-01-10T00:15:56.910Z,17.75
2023-01-10T00:18:23.567Z,18.10
2023-01-10T00:20:50.334Z,18.17
2023-01-10T00:23:18.508Z,17.45
2023-01-10T00:25:47.808Z,19.05
2023-01-10T00:28:14.435Z,18.45
2023-01-10T00:30:43.752Z,17.10
2023-01-10T00:33:16.878Z,17.02
2023-01-10T00:35:43.530Z,17.73
2023-01-10T00:38:22.694Z,17.42
2023-01-10T00:40:49.404Z,17.65
2023-01-10T00:43:20.601Z,18.23
2023-01-10T00:45:50.341Z,17.52
2023-01-10T00:48:17.311Z,18.35
2023-01-10T00:50:46.255Z,18.02
2023-01-10T00:53:16.300Z,17.55
2023-01-10T00:55:46.626Z,17.40
2023-01-10T00:58:16.253Z,16.70
2023-01-10T01:00:43.861Z,16.88
2023-01-10T01:03:13.903Z,14.27
2023-01-10T01:05:47.218Z,13.95
2023-01-10T01:08:17.911Z,12.13
2023-01-10T01:10:44.849Z,9.02
2023-01-10T01:13:17.957Z,11.05
2023-01-10T01:15:52.467Z,8.15
2023-01-10T01:18:21.639Z,9.50
2023-01-10T01:20:52.535Z,7.78
2023-01-10T01:23:19.198Z,7.25
2023-01-10T01:25:48.053Z,6.30
2023-01-10T01:28:15.787Z,7.63
2023-01-10T01:30:42.482Z,5.72
2023-01-10T01:33:09.078Z,6.53
2023-01-10T01:35:36.077Z,5.45
2023-01-10T01:38:02.847Z,5.88
2023-01-10T01:40:29.829Z,5.65
2023-01-10T01:43:04.353Z,7.32
2023-01-10T01:45:43.013Z,6.40
2023-01-10T01:48:21.189Z,5.75
2023-01-10T01:51:14.245Z,5.57
2023-01-10T01:53:49.045Z,5.70
2023-01-10T01:56:42.706Z,5.07
2023-01-10T01:59:16.044Z,4.95
2023-01-10T02:01:58.257Z,4.85
2023-01-10T02:06:57.388Z,5.00
2023-01-10T02:10:03.353Z,4.70
2023-01-10T02:12:32.136Z,4.85
2023-01-10T02:14:59.728Z,4.60
2023-01-10T02:17:26.320Z,4.50
2023-01-10T02:20:10.347Z,4.65
2023-01-10T02:22:55.155Z,4.55
2023-01-10T02:25:39.820Z,4.60
2023-01-10T02:28:36.736Z,4.28
2023-01-10T02:31:27.951Z,4.53
2023-01-10T02:34:03.824Z,3.80
2023-01-10T02:36:57.349Z,3.85
2023-01-10T02:39:32.835Z,4.28
2023-01-10T02:42:13.600Z,3.75
2023-01-10T02:45:25.896Z,3.90
2023-01-10T02:47:54.732Z,3.90
2023-01-10T02:50:38.823Z,3.45
2023-01-10T02:53:11.220Z,3.15
2023-01-10T02:56:00.880Z,3.40
2023-01-10T02:58:59.723Z,2.97
2023-01-10T03:01:34.987Z,3.38
2023-01-10T03:04:29.634Z,2.78
2023-01-10T03:07:27.841Z,2.70
2023-01-10T03:09:56.707Z,2.65
2023-01-10T03:13:15.690Z,2.58
2023-01-10T03:15:50.761Z,2.92
2023-01-10T03:18:23.608Z,2.78
2023-01-10T03:20:55.793Z,2.67
2023-01-10T03:23:28.928Z,2.60
2023-01-10T03:25:57.748Z,2.53
2023-01-10T03:28:50.108Z,3.03
2023-01-10T03:33:45.730Z,2.67
2023-01-10T03:36:29.123Z,2.67
2023-01-10T03:39:02.571Z,2.35
2023-01-10T03:41:41.488Z,2.53
2023-01-10T03:44:38.951Z,2.50
2023-01-10T03:47:13.724Z,2.67
2023-01-10T03:49:44.284Z,2.40
2023-01-10T03:52:19.897Z,2.45
2023-01-10T03:54:47.673Z,2.63
2023-01-10T03:57:23.002Z,2.67
2023-01-10T03:59:55.641Z,2.28
2023-01-10T04:02:22.238Z,2.60
2023-01-10T04:04:56.478Z,1.92
2023-01-10T04:07:23.997Z,2.20
2023-01-10T04:09:53.155Z,2.05
2023-01-10T04:12:21.784Z,1.95
2023-01-10T04:14:48.502Z,2.40
2023-01-10T04:17:18.726Z,2.20
2023-01-10T04:19:45.507Z,2.33
2023-01-10T04:22:15.612Z,2.17
2023-01-10T04:24:42.233Z,2.10
2023-01-10T04:27:11.178Z,1.85
2023-01-10T04:29:38.931Z,2.08
2023-01-10T04:32:11.655Z,1.70
2023-01-10T04:34:38.380Z,1.55
2023-01-10T04:37:06.417Z,1.77
2023-01-10T04:39:33.492Z,1.88
2023-01-10T04:42:00.166Z,2.00
2023-01-10T04:44:26.810Z,1.48
2023-01-10T04:46:53.498Z,1.55
2023-01-10T04:49:20.309Z,1.50
2023-01-10T04:51:47.817Z,1.70
2023-01-10T04:54:20.641Z,1.38
2023-01-10T04:56:49.756Z,2.05
2023-01-10T04:59:16.575Z,1.23
2023-01-10T05:01:45.189Z,1.83
2023-01-10T05:04:11.939Z,1.30
2023-01-10T05:06:41.756Z,1.63
2023-01-10T05:09:14.249Z,1.67
2023-01-10T05:11:40.999Z,1.80
2023-01-10T05:14:07.737Z,1.98
2023-01-10T05:16:34.399Z,1.90
2023-01-10T05:19:02.242Z,1.50
2023-01-10T05:21:28.833Z,1.73
2023-01-10T05:23:55.487Z,2.05
2023-01-10T05:26:26.055Z,1.80
2023-01-10T05:28:55.755Z,1.95
2023-01-10T05:31:22.478Z,2.00
2023-01-10T05:33:56.065Z,2.10
2023-01-10T05:36:22.673Z,2.03
2023-01-10T05:38:49.316Z,1.90
2023-01-10T05:41:16.035Z,2.25
2023-01-10T05:43:42.703Z,2.35
2023-01-10T05:46:09.899Z,2.10
2023-01-10T05:48:39.366Z,2.35
2023-01-10T05:51:06.331Z,1.77
2023-01-10T05:53:34.612Z,2.08
2023-01-10T05:56:02.641Z,2.50
2023-01-10T05:58:29.703Z,2.95
2023-01-10T06:00:59.242Z,3.25
2023-01-10T06:03:33.809Z,3.50
2023-01-10T06:06:02.925Z,3.80
2023-01-10T06:08:29.815Z,4.32
2023-01-10T06:10:56.421Z,3.80
2023-01-10T06:13:23.683Z,3.08
2023-01-10T06:15:50.731Z,3.13
2023-01-10T06:18:17.411Z,2.80
2023-01-10T06:20:44.698Z,2.65
2023-01-10T06:23:15.607Z,2.30
2023-01-10T06:25:44.812Z,2.90
2023-01-10T06:28:15.857Z,2.38
2023-01-10T06:30:45.708Z,2.70
2023-01-10T06:33:12.408Z,2.80
2023-01-10T06:35:46.352Z,2.20
2023-01-10T06:38:16.476Z,2.78
2023-01-10T06:40:43.663Z,2.53
2023-01-10T06:43:10.288Z,2.58
2023-01-10T06:45:36.971Z,2.58
2023-01-10T06:48:05.629Z,2.60
2023-01-10T06:50:32.196Z,2.50
2023-01-10T06:53:01.049Z,2.42
2023-01-10T06:55:31.480Z,2.20
2023-01-10T06:58:02.417Z,2.83
2023-01-10T07:00:30.534Z,2.30
2023-01-10T07:03:01.251Z,2.92
2023-01-10T07:05:28.149Z,2.55
2023-01-10T07:16:08.086Z,3.00
2023-01-10T07:18:35.819Z,3.53
2023-01-10T07:21:05.060Z,3.08
2023-01-10T07:23:34.886Z,3.03
2023-01-10T07:26:06.724Z,3.55
2023-01-10T07:28:34.090Z,3.42
2023-01-10T07:31:08.054Z,3.35
2023-01-10T07:33:34.680Z,3.50
2023-01-10T07:36:01.968Z,3.17
2023-01-10T07:38:29.100Z,3.80
2023-01-10T07:40:55.647Z,3.20
2023-01-10T07:43:22.286Z,3.25
2023-01-10T07:45:48.950Z,2.97
2023-01-10T07:48:15.543Z,2.90
2023-01-10T07:50:42.097Z,3.28
2023-01-10T07:53:11.640Z,2.78
2023-01-10T07:55:38.191Z,2.60
2023-01-10T07:58:07.636Z,2.40
2023-01-10T08:00:40.186Z,2.65
2023-01-10T08:03:07.101Z,2.80
2023-01-10T08:05:33.871Z,2.45
2023-01-10T08:08:08.024Z,2.70
2023-01-10T08:10:41.055Z,2.50
2023-01-10T08:13:18.323Z,2.83
2023-01-10T08:15:48.330Z,2.63
2023-01-10T08:18:15.053Z,2.58
2023-01-10T08:20:41.822Z,2.30
2023-01-10T08:23:08.701Z,2.60
2023-01-10T08:25:35.535Z,2.50
2023-01-10T08:28:02.827Z,2.30
2023-01-10T08:30:29.493Z,2.35
2023-01-10T08:32:56.181Z,2.40
2023-01-10T08:35:22.924Z,2.47
2023-01-10T08:37:49.577Z,1.80
2023-01-10T08:40:18.778Z,2.08
2023-01-10T08:42:52.415Z,1.73
2023-01-10T08:45:19.216Z,1.92
2023-01-10T08:47:48.368Z,1.88
2023-01-10T08:50:27.453Z,1.75
2023-01-10T08:52:54.036Z,1.65
2023-01-10T08:55:28.674Z,1.58
2023-01-10T08:57:55.349Z,1.85
2023-01-10T09:00:30.229Z,2.00
2023-01-10T09:02:57.396Z,1.70
2023-01-10T09:05:28.423Z,1.75
2023-01-10T09:08:00.327Z,1.40
2023-01-10T09:10:30.344Z,1.95
2023-01-10T09:13:00.342Z,1.88
2023-01-10T09:15:35.618Z,1.70
2023-01-10T09:18:04.293Z,1.80
2023-01-10T09:20:31.291Z,1.75
2023-01-10T09:22:57.903Z,1.63
2023-01-10T09:25:27.711Z,1.70
2023-01-10T09:28:01.780Z,1.95
2023-01-10T09:30:32.175Z,1.67
2023-01-10T09:33:01.526Z,1.70
2023-01-10T09:35:30.803Z,2.00
2023-01-10T09:37:59.664Z,2.30
2023-01-10T09:41:06.077Z,2.10
2023-01-10T09:44:01.094Z,1.98
2023-01-10T09:55:43.564Z,1.98
2023-01-10T09:58:16.058Z,1.75
2023-01-10T10:01:01.174Z,1.77
2023-01-10T10:03:57.813Z,2.00
2023-01-10T10:06:24.913Z,2.00
2023-01-10T10:08:52.565Z,2.03
2023-01-10T10:11:29.918Z,1.70
2023-01-10T10:14:06.796Z,1.58
2023-01-10T10:16:59.555Z,1.80
2023-01-10T10:19:44.198Z,1.40
2023-01-10T10:22:29.747Z,1.50
2023-01-10T10:25:11.330Z,1.60
2023-01-10T10:27:47.644Z,2.13
2023-01-10T10:30:42.497Z,1.85
2023-01-10T10:33:26.263Z,1.70
2023-01-10T10:36:23.212Z,1.65
2023-01-10T10:38:54.645Z,1.70
2023-01-10T10:41:29.917Z,1.17
2023-01-10T10:44:00.903Z,1.35
2023-01-10T10:46:32.016Z,1.85
2023-01-10T10:49:32.319Z,1.57
2023-01-10T10:52:03.743Z,1.60
2023-01-10T10:54:36.695Z,1.40
2023-01-10T10:57:05.592Z,1.23
2023-01-10T10:59:32.944Z,1.08
2023-01-10T11:02:00.520Z,1.45
2023-01-10T11:04:28.340Z,1.30
2023-01-10T11:06:58.471Z,1.33
2023-01-10T11:09:31.140Z,1.40
2023-01-10T11:12:04.873Z,1.55
2023-01-10T11:14:51.686Z,1.45
2023-01-10T11:17:34.641Z,1.25
2023-01-10T11:20:04.320Z,1.50
2023-01-10T11:22:53.467Z,1.30
2023-01-10T11:25:22.944Z,1.15
2023-01-10T11:27:59.559Z,1.60
2023-01-10T11:30:30.300Z,1.10
2023-01-10T11:33:08.195Z,1.00
2023-01-10T11:35:37.907Z,1.30
2023-01-10T11:38:20.514Z,1.70
2023-01-10T11:41:19.587Z,1.52
2023-01-10T11:43:46.127Z,1.50
2023-01-10T11:46:24.883Z,1.50
2023-01-10T11:49:12.781Z,1.20
2023-01-10T11:52:14.537Z,1.50
2023-01-10T11:54:48.019Z,1.27
2023-01-10T11:57:30.466Z,1.10
2023-01-10T12:00:01.995Z,1.17
2023-01-10T12:02:35.614Z,1.25
2023-01-10T12:05:06.623Z,1.27
2023-01-10T12:08:00.663Z,1.35
2023-01-10T12:10:28.929Z,0.95
2023-01-10T12:12:57.938Z,1.30
2023-01-10T12:15:30.037Z,1.17
2023-01-10T12:20:28.351Z,0.98
2023-01-10T12:22:59.387Z,1.40
2023-01-10T12:25:38.367Z,1.10
2023-01-10T12:28:20.079Z,1.38
2023-01-10T12:30:48.820Z,1.13
2023-01-10T12:33:30.564Z,1.00
2023-01-10T12:36:03.405Z,1.23
2023-01-10T12:41:36.537Z,0.80
2023-01-10T12:44:11.985Z,0.98
2023-01-10T12:47:23.575Z,1.10
2023-01-10T12:50:02.611Z,1.13
2023-01-10T12:52:42.151Z,1.10
2023-01-10T12:55:13.999Z,1.30
2023-01-10T12:57:47.030Z,0.98
2023-01-10T13:00:53.639Z,1.10
2023-01-10T13:03:22.881Z,0.98
2023-01-10T13:05:50.105Z,0.90
2023-01-10T13:08:23.281Z,0.95
2023-01-10T13:10:52.971Z,1.42
2023-01-10T13:13:42.787Z,1.30
2023-01-10T13:16:47.059Z,1.10
2023-01-10T13:19:13.573Z,1.30
2023-01-10T13:21:42.256Z,1.08
2023-01-10T13:24:15.012Z,1.00
2023-01-10T13:26:57.117Z,1.02
2023-01-10T13:29:30.896Z,1.23
2023-01-10T13:32:02.550Z,1.38
2023-01-10T13:34:39.303Z,1.23
2023-01-10T13:37:13.000Z,0.90
2023-01-10T13:39:53.109Z,1.17
2023-01-10T13:42:39.869Z,1.00
2023-01-10T13:45:06.341Z,0.80
2023-01-10T13:47:40.118Z,1.13
2023-01-10T13:50:32.437Z,1.08
2023-01-10T13:55:40.449Z,0.88
2023-01-10T13:58:15.994Z,0.98
2023-01-10T14:00:55.160Z,1.48
2023-01-10T14:04:00.659Z,1.10
2023-01-10T14:06:30.158Z,1.02
2023-01-10T14:09:02.096Z,1.10
2023-01-10T14:11:43.931Z,1.00
2023-01-10T14:14:25.934Z,1.33
2023-01-10T14:16:58.137Z,0.85
2023-01-10T14:19:32.729Z,0.90
2023-01-10T14:22:03.527Z,1.50
2023-01-10T14:24:42.446Z,1.17
2023-01-10T14:27:17.622Z,1.23
2023-01-10T14:29:59.412Z,1.30
2023-01-10T14:32:32.025Z,1.67
2023-01-10T14:35:02.433Z,0.90
2023-01-10T14:37:43.862Z,1.10
2023-01-10T14:40:43.278Z,1.30
2023-01-10T14:43:16.040Z,1.30
2023-01-10T14:45:52.886Z,1.20
2023-01-10T14:48:34.713Z,1.17
2023-01-10T14:51:21.587Z,1.20
2023-01-10T14:53:58.861Z,1.20
2023-01-10T14:56:28.967Z,0.93
2023-01-10T14:58:55.581Z,1.40
2023-01-10T15:01:34.124Z,1.35
2023-01-10T15:04:00.842Z,1.30
2023-01-10T15:06:27.448Z,1.30
2023-01-10T15:08:58.158Z,1.58
2023-01-10T15:11:27.314Z,1.40
2023-01-10T15:13:59.916Z,1.30
2023-01-10T15:16:30.301Z,1.70
2023-01-10T15:18:57.241Z,1.27
2023-01-10T15:21:24.308Z,1.40
2023-01-10T15:23:51.006Z,1.05
2023-01-10T15:26:26.826Z,1.75
2023-01-10T15:29:10.941Z,1.75
2023-01-10T15:31:41.173Z,2.00
2023-01-10T15:34:20.759Z,1.35
2023-01-10T15:36:56.836Z,2.20
2023-01-10T15:39:28.452Z,1.45
2023-01-10T15:42:02.903Z,1.55
2023-01-10T15:44:48.838Z,1.60
2023-01-10T15:47:42.493Z,1.50
2023-01-10T15:50:19.064Z,1.55
2023-01-10T15:53:02.060Z,1.80
2023-01-10T15:55:39.706Z,1.70
2023-01-10T15:58:32.705Z,1.77
2023-01-10T16:01:00.507Z,1.60
2023-01-10T16:03:44.553Z,2.28
2023-01-10T16:06:42.743Z,1.70
2023-01-10T16:09:19.970Z,1.88
2023-01-10T16:11:48.771Z,1.50
2023-01-10T16:14:15.411Z,1.50
2023-01-10T16:16:42.035Z,2.45
2023-01-10T16:19:08.831Z,1.80
2023-01-10T16:21:43.334Z,2.20
2023-01-10T16:24:31.190Z,2.53
2023-01-10T16:27:00.693Z,2.17
2023-01-10T16:29:27.909Z,2.45
2023-01-10T16:31:54.721Z,2.20
2023-01-10T16:34:24.690Z,2.13
2023-01-10T16:36:51.586Z,1.90
2023-01-10T16:39:20.803Z,2.65
2023-01-10T16:41:47.629Z,2.78
2023-01-10T16:44:14.332Z,2.45
2023-01-10T16:46:40.982Z,2.42
2023-01-10T16:49:07.537Z,2.40
2023-01-10T16:51:38.281Z,2.67
2023-01-10T16:54:04.996Z,2.28
2023-01-10T16:56:37.549Z,2.53
2023-01-10T16:59:06.193Z,2.60
2023-01-10T17:01:38.904Z,2.05
2023-01-10T17:04:12.117Z,2.35
2023-01-10T17:06:38.856Z,2.30
2023-01-10T17:09:05.589Z,1.95
2023-01-10T17:11:42.783Z,2.28
2023-01-10T17:14:17.443Z,2.10
2023-01-10T17:16:44.190Z,2.40
2023-01-10T17:19:10.823Z,2.13
2023-01-10T17:21:40.522Z,2.20
2023-01-10T17:24:09.505Z,2.22
2023-01-10T17:26:37.937Z,2.30
2023-01-10T17:29:05.427Z,2.20
2023-01-10T17:31:32.070Z,2.22
2023-01-10T17:33:58.735Z,2.40
2023-01-10T17:36:28.516Z,2.30
2023-01-10T17:38:56.190Z,2.25
2023-01-10T17:41:26.014Z,2.28
2023-01-10T17:43:53.551Z,2.83
2023-01-10T17:46:22.890Z,2.72
2023-01-10T17:48:52.307Z,2.05
2023-01-10T17:51:19.013Z,2.00
2023-01-10T17:53:45.589Z,2.30
2023-01-10T17:56:12.236Z,1.92
2023-01-10T17:58:38.863Z,1.88
2023-01-10T18:01:24.813Z,2.20
2023-01-10T18:03:52.519Z,1.65
2023-01-10T18:06:39.585Z,1.90
2023-01-10T18:09:06.161Z,2.55
2023-01-10T18:11:32.876Z,1.90
2023-01-10T18:14:05.974Z,2.03
2023-01-10T18:16:33.316Z,2.15
2023-01-10T18:18:59.974Z,1.95
2023-01-10T18:21:29.493Z,2.15
2023-01-10T18:23:56.103Z,1.83
2023-01-10T18:26:22.943Z,2.00
2023-01-10T18:28:49.502Z,1.90
2023-01-10T18:31:18.570Z,2.00
2023-01-10T18:33:46.535Z,1.90
2023-01-10T18:36:18.894Z,2.08
2023-01-10T18:38:45.850Z,2.33
2023-01-10T18:41:13.568Z,2.35
2023-01-10T18:43:40.277Z,2.17
2023-01-10T18:46:13.165Z,2.30
2023-01-10T18:48:40.325Z,2.25
2023-01-10T18:51:07.031Z,2.20
2023-01-10T18:53:33.559Z,1.92
2023-01-10T18:56:02.266Z,1.92
2023-01-10T18:58:32.613Z,1.88
2023-01-10T19:01:08.208Z,1.95
2023-01-10T19:03:38.732Z,2.17
2023-01-10T19:06:07.204Z,1.95
2023-01-10T19:08:35.425Z,2.05
2023-01-10T19:11:13.875Z,1.70
2023-01-10T19:13:41.959Z,1.83
2023-01-10T19:16:11.564Z,1.90
2023-01-10T19:18:38.884Z,1.95
2023-01-10T19:21:09.239Z,1.98
2023-01-10T19:23:35.870Z,2.10
2023-01-10T19:26:02.480Z,2.10
2023-01-10T19:28:29.610Z,1.83
2023-01-10T19:31:04.656Z,2.15
2023-01-10T19:33:32.530Z,2.20
2023-01-10T19:35:59.150Z,2.30
2023-01-10T19:38:25.854Z,2.17
2023-01-10T19:40:53.130Z,2.00
2023-01-10T19:43:19.920Z,2.17
2023-01-10T19:45:48.850Z,2.25
2023-01-10T19:48:21.492Z,2.13
2023-01-10T19:50:50.877Z,2.80
2023-01-10T19:53:19.084Z,2.25
2023-01-10T19:55:46.120Z,2.55
2023-01-10T19:58:12.795Z,2.50
2023-01-10T20:00:44.644Z,2.35
2023-01-10T20:03:14.130Z,2.58
2023-01-10T20:05:40.774Z,2.30
2023-01-10T20:08:07.408Z,2.88
2023-01-10T20:10:39.450Z,2.90
2023-01-10T20:15:36.038Z,2.70
2023-01-10T20:18:03.074Z,2.95
2023-01-10T20:20:29.882Z,2.75
2023-01-10T20:23:02.818Z,2.58
2023-01-10T20:25:29.592Z,2.67
2023-01-10T20:28:00.138Z,2.33
2023-01-10T20:30:26.823Z,2.30
2023-01-10T20:32:55.670Z,2.20
2023-01-10T20:35:26.310Z,2.28
2023-01-10T20:37:55.974Z,2.20
2023-01-10T20:40:22.735Z,2.38
2023-01-10T20:42:51.665Z,2.47
2023-01-10T20:45:32.847Z,2.13
2023-01-10T20:48:02.639Z,2.23
2023-01-10T20:50:32.484Z,1.70
2023-01-10T20:53:00.326Z,1.75
2023-01-10T20:55:33.669Z,2.28
2023-01-10T20:58:00.433Z,2.38
2023-01-10T21:03:23.155Z,2.22
2023-01-10T21:05:51.468Z,2.63
2023-01-10T21:08:28.283Z,3.45
2023-01-10T21:11:01.526Z,3.15
2023-01-10T21:13:28.290Z,2.50
2023-01-10T21:15:57.336Z,2.40
2023-01-10T21:18:31.663Z,2.58
2023-01-10T21:21:01.401Z,2.47
2023-01-10T21:23:28.873Z,2.47
2023-01-10T21:26:06.296Z,3.00
2023-01-10T21:28:38.225Z,2.42
2023-01-10T21:31:17.948Z,2.90
2023-01-10T21:33:45.305Z,3.05
2023-01-10T21:36:12.299Z,2.70
2023-01-10T21:38:48.232Z,2.88
2023-01-10T21:41:18.911Z,2.92
2023-01-10T21:43:45.479Z,2.33
2023-01-10T21:46:12.171Z,2.45
2023-01-10T21:48:41.459Z,1.90
2023-01-10T21:51:08.021Z,3.03
2023-01-10T21:53:34.652Z,2.13
2023-01-10T21:56:01.554Z,2.80
2023-01-10T21:58:28.150Z,2.83
2023-01-10T22:00:58.978Z,2.70
2023-01-10T22:03:29.827Z,2.90
2023-01-10T22:05:56.595Z,3.00
2023-01-10T22:08:26.159Z,2.88
2023-01-10T22:10:52.705Z,3.38
2023-01-10T22:13:19.317Z,3.30
2023-01-10T22:15:45.857Z,2.63
2023-01-10T22:18:12.418Z,2.90
2023-01-10T22:20:39.020Z,2.83
2023-01-10T22:23:05.662Z,2.97
2023-01-10T22:25:32.215Z,3.65
2023-01-10T22:27:58.805Z,3.03
2023-01-10T22:30:25.352Z,2.67
2023-01-10T22:32:55.582Z,3.17
2023-01-10T22:35:27.989Z,2.30
2023-01-10T22:37:55.640Z,3.22
2023-01-10T22:40:22.872Z,3.47
2023-01-10T22:42:50.640Z,3.20
2023-01-10T22:45:17.282Z,2.63
2023-01-10T22:47:43.943Z,2.70
2023-01-10T22:50:10.705Z,2.90
2023-01-10T22:52:37.284Z,2.83
2023-01-10T22:55:04.134Z,3.03
2023-01-10T22:57:32.979Z,2.40
2023-01-10T23:00:02.244Z,2.80
2023-01-10T23:02:32.094Z,2.80
2023-01-10T23:05:04.422Z,2.67
2023-01-10T23:07:31.360Z,2.75
2023-01-10T23:10:00.577Z,2.58
2023-01-10T23:12:27.289Z,2.80
2023-01-10T23:14:58.188Z,2.63
2023-01-10T23:17:24.738Z,2.80
2023-01-10T23:19:51.281Z,2.70
2023-01-10T23:22:17.809Z,2.35
2023-01-10T23:24:44.353Z,2.67
2023-01-10T23:27:18.515Z,2.45
2023-01-10T23:29:45.071Z,2.88
2023-01-10T23:32:11.659Z,2.67
2023-01-10T23:34:41.075Z,2.40
2023-01-10T23:37:07.615Z,2.65
2023-01-10T23:39:36.978Z,2.10
2023-01-10T23:42:03.660Z,2.30
2023-01-10T23:44:30.193Z,2.50
2023-01-10T23:46:57.124Z,2.17
2023-01-10T23:49:28.051Z,2.42
2023-01-10T23:51:54.555Z,2.30
2023-01-10T23:54:21.380Z,2.47
2023-01-10T23:56:53.659Z,2.22
2023-01-10T23:59:20.926Z,2.03
